createdAt,value
2017-12-25T00:02:16.018Z,20.35
2017-12-25T00:04:45.074Z,20.35
2017-12-25T00:07:13.376Z,20.36
2017-12-25T00:09:41.635Z,20.36
2017-12-25T00:12:09.987Z,20.37
2017-12-25T00:14:38.241Z,20.36
2017-12-25T00:17:07.091Z,20.36
2017-12-25T00:19:35.707Z,20.36
2017-12-25T00:22:04.003Z,20.36
2017-12-25T00:24:32.539Z,20.40
2017-12-25T00:27:00.814Z,20.42
2017-12-25T00:29:29.091Z,20.42
2017-12-25T00:31:58.319Z,20.44
2017-12-25T00:34:26.608Z,20.41
2017-12-25T00:36:55.171Z,20.42
2017-12-25T00:39:23.891Z,20.44
2017-12-25T00:41:52.179Z,20.46
2017-12-25T00:44:20.634Z,20.48
2017-12-25T00:46:48.930Z,20.46
2017-12-25T00:49:17.395Z,20.46
2017-12-25T00:51:45.715Z,20.45
2017-12-25T00:54:14.161Z,20.45
2017-12-25T00:56:42.445Z,20.44
2017-12-25T00:59:10.911Z,20.45
2017-12-25T01:01:39.195Z,20.44
2017-12-25T01:04:08.438Z,20.47
2017-12-25T01:06:37.078Z,20.46
2017-12-25T01:09:06.158Z,20.47
2017-12-25T01:11:34.650Z,20.46
2017-12-25T01:14:03.935Z,20.45
2017-12-25T01:16:32.657Z,20.48
2017-12-25T01:19:01.914Z,20.45
2017-12-25T01:21:30.323Z,20.47
2017-12-25T01:23:58.596Z,20.46
2017-12-25T01:26:27.130Z,20.46
2017-12-25T01:28:55.419Z,20.48
2017-12-25T01:31:24.472Z,20.41
2017-12-25T01:33:52.770Z,20.46
2017-12-25T01:36:21.511Z,20.45
2017-12-25T01:38:51.336Z,20.46
2017-12-25T01:41:20.287Z,20.45
2017-12-25T01:43:49.010Z,20.46
2017-12-25T01:46:17.691Z,20.44
2017-12-25T01:48:46.258Z,20.44
2017-12-25T01:51:14.929Z,20.46
2017-12-25T01:53:44.067Z,20.43
2017-12-25T01:56:12.603Z,20.45
2017-12-25T01:58:41.906Z,20.46
2017-12-25T02:01:12.063Z,20.45
2017-12-25T02:03:41.746Z,20.45
2017-12-25T02:06:18.964Z,20.46
2017-12-25T02:08:47.258Z,20.45
2017-12-25T02:11:15.555Z,20.47
2017-12-25T02:13:43.963Z,20.45
2017-12-25T02:16:13.075Z,20.45
2017-12-25T02:18:42.385Z,20.47
2017-12-25T02:21:11.415Z,20.50
2017-12-25T02:23:39.934Z,20.48
2017-12-25T02:26:09.184Z,20.46
2017-12-25T02:28:38.095Z,20.46
2017-12-25T02:31:07.964Z,20.48
2017-12-25T02:33:36.327Z,20.48
2017-12-25T02:36:04.912Z,20.49
2017-12-25T02:38:33.195Z,20.49
2017-12-25T02:41:01.482Z,20.48
2017-12-25T02:43:30.418Z,20.45
2017-12-25T02:45:58.871Z,20.47
2017-12-25T02:48:27.144Z,20.48
2017-12-25T02:50:55.467Z,20.49
2017-12-25T02:53:23.991Z,20.48
2017-12-25T02:55:52.281Z,20.47
2017-12-25T02:58:20.598Z,20.49
2017-12-25T03:00:48.909Z,20.50
2017-12-25T03:03:17.203Z,20.48
2017-12-25T03:05:45.582Z,20.49
2017-12-25T03:08:13.951Z,20.49
2017-12-25T03:10:42.243Z,20.48
2017-12-25T03:13:10.542Z,20.49
2017-12-25T03:15:38.831Z,20.50
2017-12-25T03:18:08.779Z,20.50
2017-12-25T03:20:40.508Z,20.51
2017-12-25T03:23:08.804Z,20.49
2017-12-25T03:25:37.086Z,20.52
2017-12-25T03:28:05.346Z,20.46
2017-12-25T03:30:34.349Z,20.49
2017-12-25T03:33:02.719Z,20.60
2017-12-25T03:35:31.299Z,20.69
2017-12-25T03:37:59.903Z,20.74
2017-12-25T03:40:28.817Z,20.79
2017-12-25T03:42:57.733Z,20.78
2017-12-25T03:45:26.613Z,20.73
2017-12-25T03:47:56.396Z,20.71
2017-12-25T03:50:25.452Z,20.72
2017-12-25T03:52:57.985Z,20.72
2017-12-25T03:55:26.775Z,20.67
2017-12-25T03:57:56.357Z,20.71
2017-12-25T04:00:25.311Z,20.69
2017-12-25T04:02:53.619Z,20.75
2017-12-25T04:05:21.992Z,20.76
2017-12-25T04:07:50.287Z,20.76
2017-12-25T04:10:18.671Z,20.76
2017-12-25T04:12:46.973Z,20.74
2017-12-25T04:15:15.304Z,20.68
2017-12-25T04:17:43.696Z,20.68
2017-12-25T04:20:12.034Z,20.68
2017-12-25T04:22:40.443Z,20.76
2017-12-25T04:25:09.044Z,20.71
2017-12-25T04:27:37.334Z,20.74
2017-12-25T04:30:05.674Z,20.73
2017-12-25T04:32:36.027Z,20.72
2017-12-25T04:35:04.605Z,20.73
2017-12-25T04:37:33.047Z,20.68
2017-12-25T04:40:01.339Z,20.69
2017-12-25T04:42:29.715Z,20.73
2017-12-25T04:44:58.244Z,20.71
2017-12-25T04:47:26.927Z,20.71
2017-12-25T04:49:55.243Z,20.68
2017-12-25T04:52:23.527Z,20.67
2017-12-25T04:54:51.792Z,20.67
2017-12-25T04:57:20.131Z,20.65
2017-12-25T04:59:48.488Z,20.65
2017-12-25T05:02:16.792Z,20.64
2017-12-25T05:04:45.134Z,20.63
2017-12-25T05:07:13.719Z,20.63
2017-12-25T05:09:43.298Z,20.60
2017-12-25T05:12:12.574Z,20.62
2017-12-25T05:14:41.211Z,20.61
2017-12-25T05:17:09.623Z,20.60
2017-12-25T05:19:38.035Z,20.58
2017-12-25T05:22:06.571Z,20.60
2017-12-25T05:24:34.883Z,20.61
2017-12-25T05:27:03.248Z,20.58
2017-12-25T05:29:31.571Z,20.56
2017-12-25T05:31:59.880Z,20.54
2017-12-25T05:34:28.186Z,20.58
2017-12-25T05:36:56.479Z,20.57
2017-12-25T05:39:24.776Z,20.55
2017-12-25T05:41:53.232Z,20.55
2017-12-25T05:44:21.898Z,20.54
2017-12-25T05:46:51.474Z,20.53
2017-12-25T05:49:19.998Z,20.55
2017-12-25T05:51:48.324Z,20.52
2017-12-25T05:54:16.606Z,20.53
2017-12-25T05:56:45.005Z,20.52
2017-12-25T05:59:13.334Z,20.52
2017-12-25T06:01:41.801Z,20.50
2017-12-25T06:04:10.070Z,20.50
2017-12-25T06:06:38.391Z,20.50
2017-12-25T06:09:06.859Z,20.53
2017-12-25T06:11:35.143Z,20.50
2017-12-25T06:14:03.836Z,20.50
2017-12-25T06:16:32.794Z,20.51
2017-12-25T06:19:02.300Z,20.52
2017-12-25T06:21:30.683Z,20.53
2017-12-25T06:23:59.294Z,20.50
2017-12-25T06:26:27.683Z,20.50
2017-12-25T06:28:55.986Z,20.52
2017-12-25T06:31:24.735Z,20.50
2017-12-25T06:33:53.051Z,20.53
2017-12-25T06:36:21.388Z,20.52
2017-12-25T06:38:49.895Z,20.51
2017-12-25T06:41:18.257Z,20.50
2017-12-25T06:43:46.728Z,20.53
2017-12-25T06:46:15.025Z,20.54
2017-12-25T06:48:43.473Z,20.57
2017-12-25T06:51:11.758Z,20.57
2017-12-25T06:53:40.028Z,20.56
2017-12-25T06:56:08.315Z,20.59
2017-12-25T06:58:36.911Z,20.61
2017-12-25T07:01:06.487Z,20.60
2017-12-25T07:03:35.957Z,20.59
2017-12-25T07:06:05.090Z,20.60
2017-12-25T07:08:33.632Z,20.60
2017-12-25T07:11:01.939Z,20.60
2017-12-25T07:13:30.228Z,20.60
2017-12-25T07:15:58.601Z,20.58
2017-12-25T07:18:27.077Z,20.59
2017-12-25T07:20:55.492Z,20.62
2017-12-25T07:23:24.685Z,20.62
2017-12-25T07:25:52.990Z,20.63
2017-12-25T07:28:21.279Z,20.62
2017-12-25T07:30:49.604Z,20.63
2017-12-25T07:33:17.903Z,20.64
2017-12-25T07:35:46.228Z,20.66
2017-12-25T07:38:14.521Z,20.66
2017-12-25T07:40:42.840Z,20.67
2017-12-25T07:43:12.021Z,20.68
2017-12-25T07:45:40.389Z,20.68
2017-12-25T07:48:08.701Z,20.69
2017-12-25T07:50:37.279Z,20.68
2017-12-25T07:53:05.584Z,20.68
2017-12-25T07:55:34.020Z,20.69
2017-12-25T07:58:02.638Z,20.70
2017-12-25T08:00:31.110Z,20.79
2017-12-25T08:02:59.463Z,20.77
2017-12-25T08:05:27.755Z,20.77
2017-12-25T08:07:56.086Z,20.77
2017-12-25T08:10:24.491Z,20.78
2017-12-25T08:12:52.840Z,20.77
2017-12-25T08:15:21.642Z,20.80
2017-12-25T08:17:49.952Z,20.82
2017-12-25T08:20:18.394Z,20.82
2017-12-25T08:22:46.684Z,20.82
2017-12-25T08:25:15.201Z,20.88
2017-12-25T08:27:43.491Z,20.86
2017-12-25T08:30:11.811Z,20.85
2017-12-25T08:32:40.132Z,20.88
2017-12-25T08:35:08.476Z,20.90
2017-12-25T08:37:37.256Z,20.91
2017-12-25T08:40:05.591Z,20.88
2017-12-25T08:42:33.919Z,20.89
2017-12-25T08:45:02.321Z,20.86
2017-12-25T08:47:30.647Z,20.86
2017-12-25T08:49:58.915Z,20.83
2017-12-25T08:52:27.324Z,20.82
2017-12-25T08:54:55.599Z,20.79
2017-12-25T08:57:23.938Z,20.80
2017-12-25T08:59:52.244Z,20.81
2017-12-25T09:02:20.586Z,20.80
2017-12-25T09:04:48.877Z,20.79
2017-12-25T09:07:17.195Z,20.77
2017-12-25T09:09:45.509Z,20.80
2017-12-25T09:12:13.900Z,20.83
2017-12-25T09:14:42.283Z,20.82
2017-12-25T09:17:10.648Z,20.80
2017-12-25T09:19:38.939Z,20.79
2017-12-25T09:22:07.268Z,20.80
2017-12-25T09:24:35.603Z,20.80
2017-12-25T09:27:03.937Z,20.80
2017-12-25T09:29:32.267Z,20.81
2017-12-25T09:32:00.806Z,20.79
2017-12-25T09:34:29.144Z,20.81
2017-12-25T09:36:57.494Z,20.83
2017-12-25T09:39:25.778Z,20.87
2017-12-25T09:41:54.282Z,20.88
2017-12-25T09:44:23.008Z,20.86
2017-12-25T09:46:51.335Z,20.82
2017-12-25T09:49:19.666Z,20.79
2017-12-25T09:51:48.107Z,20.81
2017-12-25T09:54:16.432Z,20.80
2017-12-25T09:56:44.803Z,20.79
2017-12-25T09:59:13.103Z,20.79
2017-12-25T10:01:41.483Z,20.81
2017-12-25T10:04:09.786Z,20.80
2017-12-25T10:06:38.166Z,20.79
2017-12-25T10:09:06.638Z,20.83
2017-12-25T10:11:35.151Z,20.84
2017-12-25T10:14:03.443Z,20.81
2017-12-25T10:16:31.771Z,20.80
2017-12-25T10:19:00.147Z,20.81
2017-12-25T10:21:28.473Z,20.81
2017-12-25T10:23:56.764Z,20.79
2017-12-25T10:26:25.213Z,20.83
2017-12-25T10:28:53.591Z,20.84
2017-12-25T10:31:21.990Z,20.86
2017-12-25T10:33:50.284Z,20.88
2017-12-25T10:36:18.671Z,20.88
2017-12-25T10:38:47.075Z,20.89
2017-12-25T10:41:15.372Z,20.89
2017-12-25T10:43:43.663Z,20.91
2017-12-25T10:46:12.035Z,20.91
2017-12-25T10:48:40.459Z,20.92
2017-12-25T10:51:08.734Z,20.96
2017-12-25T10:53:37.015Z,20.95
2017-12-25T10:56:05.316Z,20.93
2017-12-25T10:58:33.803Z,20.94
2017-12-25T11:01:02.117Z,20.97
2017-12-25T11:03:30.467Z,20.94
2017-12-25T11:05:58.784Z,20.96
2017-12-25T11:08:27.067Z,20.97
2017-12-25T11:10:55.390Z,20.97
2017-12-25T11:13:23.711Z,20.97
2017-12-25T11:15:52.659Z,20.96
2017-12-25T11:18:20.978Z,20.96
2017-12-25T11:20:49.259Z,20.98
2017-12-25T11:23:17.579Z,20.99
2017-12-25T11:25:46.083Z,21.00
2017-12-25T11:28:15.047Z,20.99
2017-12-25T11:30:43.367Z,21.00
2017-12-25T11:33:11.799Z,20.98
2017-12-25T11:35:40.090Z,20.99
2017-12-25T11:38:08.439Z,20.96
2017-12-25T11:40:36.747Z,20.96
2017-12-25T11:43:05.015Z,20.97
2017-12-25T11:45:33.512Z,20.97
2017-12-25T11:48:01.791Z,21.00
2017-12-25T11:50:30.343Z,20.98
2017-12-25T11:52:58.745Z,20.99
2017-12-25T11:55:27.238Z,20.99
2017-12-25T11:57:55.543Z,20.95
2017-12-25T12:00:23.884Z,21.00
2017-12-25T12:02:52.215Z,21.03
2017-12-25T12:05:20.799Z,21.06
2017-12-25T12:07:49.111Z,21.06
2017-12-25T12:10:17.419Z,21.07
2017-12-25T12:12:45.766Z,21.07
2017-12-25T12:15:14.076Z,21.07
2017-12-25T12:17:42.391Z,21.09
2017-12-25T12:20:10.702Z,21.08
2017-12-25T12:22:39.067Z,21.09
2017-12-25T12:25:07.468Z,21.05
2017-12-25T12:27:35.732Z,21.06
2017-12-25T12:30:04.126Z,21.06
2017-12-25T12:32:32.575Z,21.05
2017-12-25T12:35:00.924Z,21.07
2017-12-25T12:37:29.362Z,21.05
2017-12-25T12:39:57.639Z,21.06
2017-12-25T12:42:26.115Z,21.04
2017-12-25T12:44:54.379Z,20.99
2017-12-25T12:47:22.675Z,21.05
2017-12-25T12:49:51.139Z,21.04
2017-12-25T12:52:19.435Z,21.05
2017-12-25T12:54:48.013Z,21.04
2017-12-25T12:57:16.596Z,21.03
2017-12-25T12:59:44.859Z,21.00
2017-12-25T13:02:13.180Z,21.03
2017-12-25T13:04:41.643Z,21.05
2017-12-25T13:07:09.986Z,21.05
2017-12-25T13:09:38.380Z,21.04
2017-12-25T13:12:06.875Z,21.06
2017-12-25T13:14:35.224Z,21.03
2017-12-25T13:17:03.534Z,21.05
2017-12-25T13:19:32.052Z,21.05
2017-12-25T13:22:00.390Z,21.04
2017-12-25T13:24:28.688Z,21.07
2017-12-25T13:26:57.136Z,21.07
2017-12-25T13:29:25.403Z,21.06
2017-12-25T13:31:53.807Z,21.08
2017-12-25T13:34:22.155Z,21.07
2017-12-25T13:36:50.698Z,21.12
2017-12-25T13:39:18.983Z,21.15
2017-12-25T13:41:47.275Z,21.14
2017-12-25T13:44:15.540Z,21.13
2017-12-25T13:46:43.835Z,21.14
2017-12-25T13:49:12.110Z,21.14
2017-12-25T13:51:40.459Z,21.17
2017-12-25T13:54:08.746Z,21.15
2017-12-25T13:56:37.235Z,21.13
2017-12-25T13:59:05.505Z,21.11
2017-12-25T14:01:33.807Z,21.12
2017-12-25T14:04:02.096Z,21.11
2017-12-25T14:06:30.563Z,21.11
2017-12-25T14:08:59.098Z,21.09
2017-12-25T14:11:27.378Z,21.08
2017-12-25T14:13:55.795Z,21.10
2017-12-25T14:16:24.100Z,21.10
2017-12-25T14:18:52.555Z,21.06
2017-12-25T14:21:20.826Z,21.06
2017-12-25T14:23:49.123Z,21.08
2017-12-25T14:26:17.603Z,21.09
2017-12-25T14:28:46.075Z,21.09
2017-12-25T14:31:14.669Z,21.09
2017-12-25T14:33:42.919Z,21.09
2017-12-25T14:36:11.322Z,21.08
2017-12-25T14:38:39.777Z,21.02
2017-12-25T14:41:08.055Z,21.06
2017-12-25T14:43:36.515Z,21.02
2017-12-25T14:46:04.822Z,21.08
2017-12-25T14:48:33.274Z,21.07
2017-12-25T14:51:01.812Z,21.07
2017-12-25T14:53:30.259Z,21.07
2017-12-25T14:55:58.555Z,21.04
2017-12-25T14:58:27.007Z,21.05
2017-12-25T15:00:55.282Z,21.06
2017-12-25T15:03:23.589Z,21.07
2017-12-25T15:05:51.895Z,21.07
2017-12-25T15:08:20.183Z,21.08
2017-12-25T15:10:48.611Z,21.02
2017-12-25T15:13:16.902Z,21.06
2017-12-25T15:15:45.379Z,21.06
2017-12-25T15:18:13.779Z,21.08
2017-12-25T15:20:42.067Z,21.07
2017-12-25T15:23:10.368Z,21.06
2017-12-25T15:25:38.823Z,21.07
2017-12-25T15:28:07.086Z,21.06
2017-12-25T15:30:35.372Z,21.06
2017-12-25T15:33:03.626Z,21.07
2017-12-25T15:35:31.967Z,21.09
2017-12-25T15:38:00.444Z,21.05
2017-12-25T15:40:28.792Z,21.10
2017-12-25T15:42:57.894Z,21.07
2017-12-25T15:45:26.327Z,21.08
2017-12-25T15:47:54.791Z,21.07
2017-12-25T15:50:23.103Z,21.05
2017-12-25T15:52:51.552Z,21.05
2017-12-25T15:55:19.976Z,21.06
2017-12-25T15:57:48.283Z,21.05
2017-12-25T16:00:16.583Z,21.07
2017-12-25T16:02:44.840Z,21.07
2017-12-25T16:05:13.214Z,21.07
2017-12-25T16:07:41.591Z,21.06
2017-12-25T16:10:10.041Z,21.08
2017-12-25T16:12:38.375Z,21.07
2017-12-25T16:15:06.862Z,21.04
2017-12-25T16:17:35.307Z,21.02
2017-12-25T16:20:03.635Z,21.01
2017-12-25T16:22:31.979Z,21.00
2017-12-25T16:25:00.271Z,21.01
2017-12-25T16:27:28.814Z,21.02
2017-12-25T16:29:57.131Z,21.01
2017-12-25T16:32:25.496Z,21.01
2017-12-25T16:34:53.775Z,20.98
2017-12-25T16:37:22.063Z,21.00
2017-12-25T16:39:50.314Z,20.94
2017-12-25T16:42:18.629Z,20.96
2017-12-25T16:44:46.971Z,20.96
2017-12-25T16:47:15.246Z,20.98
2017-12-25T16:49:43.498Z,20.98
2017-12-25T16:52:11.816Z,20.99
2017-12-25T16:54:40.355Z,20.96
2017-12-25T16:57:08.677Z,20.95
2017-12-25T16:59:36.983Z,20.96
2017-12-25T17:02:05.272Z,20.96
2017-12-25T17:04:33.600Z,20.97
2017-12-25T17:07:02.097Z,20.98
2017-12-25T17:09:30.389Z,20.98
2017-12-25T17:11:58.719Z,20.94
2017-12-25T17:14:27.031Z,20.96
2017-12-25T17:16:55.343Z,20.93
2017-12-25T17:19:23.595Z,20.92
2017-12-25T17:21:51.896Z,20.90
2017-12-25T17:24:20.195Z,20.93
2017-12-25T17:26:48.535Z,20.93
2017-12-25T17:29:16.843Z,20.93
2017-12-25T17:31:45.147Z,20.93
2017-12-25T17:34:13.769Z,20.96
2017-12-25T17:36:42.235Z,20.96
2017-12-25T17:39:10.691Z,20.96
2017-12-25T17:41:38.983Z,20.96
2017-12-25T17:44:07.455Z,20.98
2017-12-25T17:46:35.731Z,20.96
2017-12-25T17:49:04.015Z,20.98
2017-12-25T17:51:32.503Z,20.99
2017-12-25T17:54:00.958Z,21.00
2017-12-25T17:56:29.260Z,21.03
2017-12-25T17:58:57.719Z,21.01
2017-12-25T18:01:26.157Z,21.04
2017-12-25T18:03:54.416Z,21.02
2017-12-25T18:06:22.726Z,21.07
2017-12-25T18:08:50.992Z,21.08
2017-12-25T18:11:19.279Z,21.10
2017-12-25T18:13:47.779Z,21.11
2017-12-25T18:16:16.275Z,21.10
2017-12-25T18:18:44.575Z,21.11
2017-12-25T18:21:12.907Z,21.12
2017-12-25T18:23:41.179Z,21.09
2017-12-25T18:26:09.474Z,21.08
2017-12-25T18:28:37.780Z,21.04
2017-12-25T18:31:06.244Z,21.10
2017-12-25T18:33:34.519Z,21.06
2017-12-25T18:36:02.844Z,21.05
2017-12-25T18:38:31.127Z,21.10
2017-12-25T18:40:59.431Z,21.08
2017-12-25T18:43:27.711Z,21.11
2017-12-25T18:45:56.023Z,21.09
2017-12-25T18:48:24.342Z,21.08
2017-12-25T18:50:52.679Z,21.03
2017-12-25T18:53:20.947Z,21.06
2017-12-25T18:55:49.320Z,21.07
2017-12-25T18:58:17.642Z,21.09
2017-12-25T19:00:45.939Z,21.08
2017-12-25T19:03:14.323Z,21.07
2017-12-25T19:05:42.626Z,21.08
2017-12-25T19:08:11.066Z,21.06
2017-12-25T19:10:39.709Z,21.04
2017-12-25T19:13:08.051Z,21.06
2017-12-25T19:15:36.347Z,21.04
2017-12-25T19:18:04.623Z,21.05
2017-12-25T19:20:32.902Z,21.04
2017-12-25T19:23:01.360Z,21.01
2017-12-25T19:25:29.697Z,21.03
2017-12-25T19:27:58.007Z,21.02
2017-12-25T19:30:26.343Z,21.02
2017-12-25T19:32:54.666Z,21.04
2017-12-25T19:35:22.950Z,21.01
2017-12-25T19:37:51.215Z,21.00
2017-12-25T19:40:19.502Z,20.99
2017-12-25T19:42:47.835Z,20.98
2017-12-25T19:45:16.250Z,21.00
2017-12-25T19:47:44.654Z,21.01
2017-12-25T19:50:12.955Z,20.99
2017-12-25T19:52:41.284Z,21.00
2017-12-25T19:55:09.631Z,21.00
2017-12-25T19:57:37.926Z,21.00
2017-12-25T20:00:06.512Z,20.96
2017-12-25T20:02:34.798Z,20.98
2017-12-25T20:05:03.078Z,21.09
2017-12-25T20:07:31.419Z,21.20
2017-12-25T20:09:59.695Z,21.27
2017-12-25T20:12:28.046Z,21.34
2017-12-25T20:14:56.522Z,21.31
2017-12-25T20:17:24.835Z,21.32
2017-12-25T20:19:53.144Z,21.31
2017-12-25T20:22:21.960Z,21.32
2017-12-25T20:24:50.310Z,21.36
2017-12-25T20:27:18.631Z,21.33
2017-12-25T20:29:46.900Z,21.36
2017-12-25T20:32:15.375Z,21.32
2017-12-25T20:34:43.684Z,21.33
2017-12-25T20:37:12.708Z,21.32
2017-12-25T20:39:41.179Z,21.30
2017-12-25T20:42:09.515Z,21.33
2017-12-25T20:44:37.835Z,21.34
2017-12-25T20:47:06.196Z,21.35
2017-12-25T20:49:34.740Z,21.37
2017-12-25T20:52:03.212Z,21.36
2017-12-25T20:54:31.507Z,21.37
2017-12-25T20:56:59.811Z,21.36
2017-12-25T20:59:28.132Z,21.34
2017-12-25T21:01:56.431Z,21.37
2017-12-25T21:04:24.730Z,21.35
2017-12-25T21:06:53.415Z,21.29
2017-12-25T21:09:22.024Z,21.29
2017-12-25T21:11:50.320Z,21.29
2017-12-25T21:14:18.582Z,21.33
2017-12-25T21:16:47.040Z,21.35
2017-12-25T21:19:15.319Z,21.33
2017-12-25T21:21:44.390Z,21.29
2017-12-25T21:24:12.723Z,21.27
2017-12-25T21:26:41.131Z,21.26
2017-12-25T21:29:09.550Z,21.25
2017-12-25T21:31:37.830Z,21.28
2017-12-25T21:34:06.089Z,21.25
2017-12-25T21:36:34.380Z,21.25
2017-12-25T21:39:02.691Z,21.21
2017-12-25T21:41:31.035Z,21.21
2017-12-25T21:43:59.302Z,21.20
2017-12-25T21:46:27.595Z,21.21
2017-12-25T21:48:56.048Z,21.18
2017-12-25T21:51:24.856Z,21.19
2017-12-25T21:53:53.535Z,21.19
2017-12-25T21:56:21.904Z,21.17
2017-12-25T21:58:50.179Z,21.19
2017-12-25T22:01:18.988Z,21.16
2017-12-25T22:03:47.274Z,21.16
2017-12-25T22:06:15.587Z,21.16
2017-12-25T22:08:43.867Z,21.13
2017-12-25T22:11:12.165Z,21.17
2017-12-25T22:13:40.513Z,21.18
2017-12-25T22:16:08.860Z,21.18
2017-12-25T22:18:37.150Z,21.19
2017-12-25T22:21:05.436Z,21.17
2017-12-25T22:23:33.730Z,21.14
2017-12-25T22:26:02.252Z,21.15
2017-12-25T22:28:30.653Z,21.17
2017-12-25T22:30:58.979Z,21.14
2017-12-25T22:33:27.431Z,21.12
2017-12-25T22:35:55.763Z,21.11
2017-12-25T22:38:24.182Z,21.14
2017-12-25T22:40:52.487Z,21.14
2017-12-25T22:43:20.765Z,21.13
2017-12-25T22:45:49.127Z,21.12
2017-12-25T22:48:17.425Z,21.14
2017-12-25T22:50:45.896Z,21.11
2017-12-25T22:53:14.332Z,21.11
2017-12-25T22:55:42.672Z,21.12
2017-12-25T22:58:11.048Z,21.13
2017-12-25T23:00:40.738Z,21.11
2017-12-25T23:03:09.062Z,21.10
2017-12-25T23:05:37.380Z,21.09
2017-12-25T23:08:05.822Z,21.11
2017-12-25T23:10:34.111Z,21.09
2017-12-25T23:13:02.495Z,21.09
2017-12-25T23:15:30.819Z,21.09
2017-12-25T23:17:59.111Z,21.06
2017-12-25T23:20:27.444Z,21.09
2017-12-25T23:22:55.887Z,21.07
2017-12-25T23:25:24.171Z,21.06
2017-12-25T23:27:52.483Z,21.08
2017-12-25T23:30:20.788Z,21.06
2017-12-25T23:32:49.143Z,21.05
2017-12-25T23:35:17.487Z,21.06
2017-12-25T23:37:45.738Z,21.08
2017-12-25T23:40:14.262Z,21.06
2017-12-25T23:42:42.595Z,21.07
2017-12-25T23:45:11.128Z,21.05
2017-12-25T23:47:39.430Z,21.03
2017-12-25T23:50:07.903Z,21.04
2017-12-25T23:52:36.175Z,21.02
2017-12-25T23:55:04.471Z,21.02
2017-12-25T23:57:32.822Z,21.05
